Time;durP1;ratioP1;P1;durP2;ratioP2;P2;SDS_P1;SDS_P2;PMS_P1;PMS_P2;Temp;Humidity;BMP_temperature;BMP_pressure;BME280_temperature;BME280_humidity;BME280_pressure;Samples;Min_cycle;Max_cycle;Signal;HPM_P1;HPM_P2
2022/10/10 00:00:37;;;;;;;3.30;2.23;;;;;;;22.93;55.51;97663.25;4972271;28;20214;-31
2022/10/10 00:03:04;;;;;;;3.03;2.50;;;;;;;22.93;55.43;97655.56;4973389;28;20630;-31
2022/10/10 00:05:30;;;;;;;3.60;2.37;;;;;;;22.90;55.39;97652.91;4972738;28;20207;-31
2022/10/10 00:07:57;;;;;;;2.97;2.20;;;;;;;22.93;55.20;97659.81;4972478;28;20219;-31
2022/10/10 00:10:24;;;;;;;2.20;2.00;;;;;;;22.93;55.27;97657.25;4971955;28;20211;-31
2022/10/10 00:12:50;;;;;;;2.90;2.40;;;;;;;22.93;55.30;97653.00;4971606;28;20227;-31
2022/10/10 00:15:17;;;;;;;2.57;2.10;;;;;;;22.94;55.24;97656.41;4973044;28;20247;-31
2022/10/10 00:17:44;;;;;;;2.60;2.23;;;;;;;22.93;54.72;97654.69;4972112;28;20215;-31
2022/10/10 00:20:11;;;;;;;2.80;2.17;;;;;;;22.93;55.20;97649.56;4972881;28;20210;-31
2022/10/10 00:22:38;;;;;;;2.50;2.27;;;;;;;22.93;54.76;97653.00;4972376;28;20210;-31
2022/10/10 00:25:06;;;;;;;2.63;2.13;;;;;;;22.88;55.25;97643.44;4973563;28;20196;-31
2022/10/10 00:27:32;;;;;;;2.30;2.10;;;;;;;22.93;55.24;97660.69;4973669;28;20788;-31
2022/10/10 00:29:59;;;;;;;2.67;2.47;;;;;;;22.94;55.20;97656.41;4973106;28;20203;-31
2022/10/10 00:32:25;;;;;;;2.20;2.00;;;;;;;22.93;55.33;97647.88;4973598;28;20223;-31
2022/10/10 00:34:52;;;;;;;2.80;2.20;;;;;;;22.92;55.33;97648.69;4971109;28;20713;-31
2022/10/10 00:37:18;;;;;;;5.00;2.27;;;;;;;22.93;55.27;97647.88;4972464;28;20226;-31
2022/10/10 00:39:45;;;;;;;2.40;2.00;;;;;;;22.93;55.05;97649.56;4971919;28;20211;-31
2022/10/10 00:42:12;;;;;;;2.63;2.10;;;;;;;22.91;55.08;97646.06;4973208;28;20199;-31
2022/10/10 00:44:40;;;;;;;2.57;2.10;;;;;;;22.94;55.01;97646.16;4971113;28;20214;-31
2022/10/10 00:47:06;;;;;;;2.37;2.10;;;;;;;22.93;54.98;97647.88;4972422;28;20238;-31
2022/10/10 00:49:33;;;;;;;2.73;2.20;;;;;;;22.93;55.11;97642.75;4972585;28;20211;-31
2022/10/10 00:51:59;;;;;;;2.47;2.10;;;;;;;22.94;55.17;97657.28;4971153;28;20227;-31
2022/10/10 00:54:26;;;;;;;2.63;2.30;;;;;;;22.87;55.04;97622.09;4971210;28;20206;-31
2022/10/10 00:57:02;;;;;;;2.20;2.00;;;;;;;22.89;55.18;97637.50;4955581;28;20677;-31
2022/10/10 00:59:30;;;;;;;2.40;2.03;;;;;;;22.85;55.08;97621.16;4951982;28;20225;-31
2022/10/10 01:01:57;;;;;;;2.33;2.00;;;;;;;22.93;55.05;97635.06;4953581;28;20666;-31
2022/10/10 01:04:43;;;;;;;2.20;2.00;;;;;;;22.93;55.16;97642.75;4971806;28;20207;-31
2022/10/10 01:07:19;;;;;;;2.37;2.17;;;;;;;22.93;55.15;97639.31;4972292;28;20219;-31
2022/10/10 01:09:45;;;;;;;3.07;2.30;;;;;;;22.93;55.02;97634.19;4971728;28;20202;-31
2022/10/10 01:12:26;;;;;;;2.30;2.10;;;;;;;22.94;55.09;97641.03;4974377;28;20211;-31
2022/10/10 01:15:07;;;;;;;3.80;2.40;;;;;;;22.94;54.97;97633.34;4974771;28;20234;-31
2022/10/10 01:17:40;;;;;;;2.70;2.20;;;;;;;22.91;55.08;97626.44;4975642;28;20223;-31
2022/10/10 01:20:21;;;;;;;6.60;2.20;;;;;;;22.93;55.06;97627.38;4967842;28;20445;-31
2022/10/10 01:23:06;;;;;;;2.10;2.00;;;;;;;22.92;54.87;97622.19;4975021;28;20208;-31
2022/10/10 01:25:33;;;;;;;2.60;2.37;;;;;;;22.93;55.05;97624.81;4976894;28;20212;-31
2022/10/10 01:28:25;;;;;;;2.30;2.10;;;;;;;22.93;55.09;97627.38;4975370;28;20239;-31
2022/10/10 01:30:51;;;;;;;3.47;2.27;;;;;;;22.86;55.16;97611.78;4975241;28;20581;-31
2022/10/10 01:33:28;;;;;;;2.73;2.00;;;;;;;22.84;54.97;97606.63;4955459;28;20224;-31
2022/10/10 01:36:26;;;;;;;2.37;2.07;;;;;;;22.94;54.83;97620.53;4954418;28;20203;-31
2022/10/10 01:39:06;;;;;;;2.57;2.33;;;;;;;22.93;54.84;97617.13;4960103;28;20582;-31
2022/10/10 01:41:37;;;;;;;2.73;1.90;;;;;;;22.91;54.55;97608.50;4971172;28;20211;-31
2022/10/10 01:44:03;;;;;;;2.20;2.00;;;;;;;22.93;54.85;97616.22;4973368;28;20199;-31
2022/10/10 01:46:30;;;;;;;2.20;2.00;;;;;;;22.93;54.95;97608.53;4973878;28;20609;-31
2022/10/10 01:48:57;;;;;;;2.50;2.30;;;;;;;22.93;54.80;97611.09;4973218;28;20235;-31
2022/10/10 01:51:52;;;;;;;2.27;2.07;;;;;;;22.93;54.98;97611.09;4972015;28;20207;-31
2022/10/10 01:54:35;;;;;;;2.33;2.10;;;;;;;22.93;54.96;97599.16;4969476;28;20195;-31
2022/10/10 01:57:40;;;;;;;2.47;2.23;;;;;;;22.89;54.98;97588.81;4989211;28;20195;-31
2022/10/10 02:00:16;;;;;;;2.70;1.90;;;;;;;22.88;54.98;97585.38;4960749;28;20223;-31
2022/10/10 02:02:58;;;;;;;2.73;2.10;;;;;;;22.92;54.81;97591.44;4970948;28;20199;-31
2022/10/10 02:05:42;;;;;;;2.73;2.40;;;;;;;22.93;55.03;97600.84;4972187;28;20213;-31
2022/10/10 02:08:13;;;;;;;2.60;2.30;;;;;;;22.93;54.79;97599.16;4973075;28;20428;-31
2022/10/10 02:10:43;;;;;;;2.20;2.00;;;;;;;22.86;54.89;97588.72;4972525;28;20203;-31
2022/10/10 02:13:10;;;;;;;2.00;1.90;;;;;;;22.93;54.87;97606.84;4987339;28;20219;-31
2022/10/10 02:15:43;;;;;;;2.20;2.00;;;;;;;22.92;54.66;97599.13;4974961;28;20230;-31
2022/10/10 02:18:10;;;;;;;2.03;1.83;;;;;;;22.87;54.75;97590.44;4958290;28;20220;-31
2022/10/10 02:20:37;;;;;;;2.20;2.00;;;;;;;22.93;54.85;97604.31;4973125;28;20207;-31
2022/10/10 02:23:04;;;;;;;2.60;2.07;;;;;;;22.94;54.75;97594.88;4972750;28;20675;-31
2022/10/10 02:25:32;;;;;;;2.87;2.10;;;;;;;22.93;54.62;97595.72;4973316;28;20203;-31
2022/10/10 02:28:07;;;;;;;2.20;2.00;;;;;;;22.94;54.81;97597.47;4941101;28;20238;-31
2022/10/10 02:30:34;;;;;;;2.30;2.10;;;;;;;22.93;54.70;97603.41;4974352;28;20207;-31
2022/10/10 02:33:01;;;;;;;2.10;1.90;;;;;;;22.94;54.66;97600.91;4973140;28;20231;-31
2022/10/10 02:35:30;;;;;;;2.30;2.10;;;;;;;22.93;54.78;97596.59;4959855;28;20682;-31
2022/10/10 02:37:58;;;;;;;4.17;2.30;;;;;;;22.94;54.66;97594.88;4958188;28;20765;-31
2022/10/10 02:40:26;;;;;;;2.37;2.00;;;;;;;22.94;54.58;97602.56;4973941;28;20685;-31
2022/10/10 02:42:53;;;;;;;2.37;2.00;;;;;;;22.87;54.64;97587.88;4963464;28;20210;-31
2022/10/10 02:45:20;;;;;;;2.60;1.97;;;;;;;22.94;54.73;97597.47;4956624;28;20207;-31
2022/10/10 02:47:46;;;;;;;2.77;1.93;;;;;;;22.94;54.73;97598.34;4957736;28;20245;-31
2022/10/10 02:50:13;;;;;;;3.00;2.03;;;;;;;22.92;54.72;97599.13;4974465;28;20204;-31
2022/10/10 02:52:39;;;;;;;2.30;2.10;;;;;;;22.94;54.68;97593.22;4972959;28;20220;-31
2022/10/10 02:55:06;;;;;;;2.27;1.73;;;;;;;22.93;54.78;97586.34;4974509;28;20196;-31
2022/10/10 02:57:33;;;;;;;2.20;1.90;;;;;;;22.94;54.42;97593.22;4974093;28;20624;-31
2022/10/10 03:00:00;;;;;;;2.27;2.07;;;;;;;22.94;54.47;97589.75;4973788;28;20206;-31
2022/10/10 03:02:27;;;;;;;2.10;1.90;;;;;;;22.91;54.60;97590.56;4973609;28;20200;-31
2022/10/10 03:04:53;;;;;;;2.33;1.70;;;;;;;22.95;54.66;97589.81;4975363;28;20212;-31
2022/10/10 03:07:20;;;;;;;1.97;1.80;;;;;;;22.95;54.63;97586.41;4976981;28;20705;-31
2022/10/10 03:09:46;;;;;;;2.10;1.90;;;;;;;22.94;54.80;97600.91;4973839;28;20417;-31
2022/10/10 03:12:13;;;;;;;2.20;2.00;;;;;;;22.95;54.55;97599.22;4973249;28;20214;-31
2022/10/10 03:14:39;;;;;;;1.80;1.70;;;;;;;22.94;54.46;97598.34;4974243;28;20218;-32
2022/10/10 03:17:06;;;;;;;2.10;1.90;;;;;;;22.94;54.55;97594.88;4977089;28;20200;-31
2022/10/10 03:19:32;;;;;;;1.93;1.73;;;;;;;22.94;54.75;97589.75;4973929;28;20215;-31
2022/10/10 03:21:59;;;;;;;2.50;1.90;;;;;;;22.94;54.46;97592.31;4973791;28;20226;-31
2022/10/10 03:24:25;;;;;;;2.77;2.23;;;;;;;22.94;54.53;97594.88;4973365;28;20210;-31
2022/10/10 03:26:52;;;;;;;2.83;1.90;;;;;;;22.94;54.53;97598.34;4972537;28;20211;-31
2022/10/10 03:29:18;;;;;;;2.20;2.00;;;;;;;22.94;54.56;97595.78;4973595;28;20223;-31
2022/10/10 03:31:45;;;;;;;2.30;2.10;;;;;;;22.94;54.52;97600.91;4970053;28;20207;-31
2022/10/10 03:34:11;;;;;;;3.23;2.00;;;;;;;22.90;54.43;97604.22;4972158;28;20226;-31
2022/10/10 03:36:38;;;;;;;2.10;1.97;;;;;;;22.94;54.62;97602.56;4971512;28;20207;-31
2022/10/10 03:39:04;;;;;;;2.33;2.13;;;;;;;22.94;54.27;97603.47;4970519;28;20227;-31
2022/10/10 03:41:31;;;;;;;2.00;1.90;;;;;;;22.89;54.39;97591.38;4973383;28;20204;-31
2022/10/10 03:43:57;;;;;;;1.90;1.80;;;;;;;22.94;54.39;97608.59;4971730;28;20200;-31
2022/10/10 03:46:24;;;;;;;2.47;2.03;;;;;;;22.92;54.61;97597.41;4973428;28;20689;-31
2022/10/10 03:48:50;;;;;;;2.07;1.90;;;;;;;22.86;54.54;97591.28;4972944;28;20228;-31
2022/10/10 03:51:17;;;;;;;2.00;1.80;;;;;;;22.94;54.40;97600.03;4969385;28;20204;-31
2022/10/10 03:53:43;;;;;;;2.23;2.00;;;;;;;22.92;54.38;97591.44;4972272;28;20703;-31
2022/10/10 03:56:10;;;;;;;2.50;1.97;;;;;;;22.92;54.49;97596.56;4969245;28;20212;-31
2022/10/10 03:58:37;;;;;;;2.20;1.87;;;;;;;22.93;54.62;97594.03;4976008;28;20223;-31
2022/10/10 04:01:03;;;;;;;2.43;1.80;;;;;;;22.93;54.62;97600.84;4973435;28;20214;-31
2022/10/10 04:03:30;;;;;;;2.00;1.80;;;;;;;22.93;54.45;97598.28;4969718;28;20199;-31
2022/10/10 04:05:56;;;;;;;5.23;2.40;;;;;;;22.93;54.37;97595.72;4968225;28;20204;-31
2022/10/10 04:08:23;;;;;;;3.73;2.03;;;;;;;22.93;54.47;97595.72;4972583;28;20737;-31
2022/10/10 04:10:50;;;;;;;2.27;2.07;;;;;;;22.94;54.42;97589.75;4972310;28;20217;-31
2022/10/10 04:13:17;;;;;;;2.30;2.03;;;;;;;22.93;54.28;97591.47;4972312;28;20223;-31
2022/10/10 04:15:43;;;;;;;3.40;2.00;;;;;;;22.94;54.29;97597.47;4969345;28;20212;-31
2022/10/10 04:18:10;;;;;;;2.10;1.73;;;;;;;22.94;54.21;97595.78;4972654;28;20215;-31
2022/10/10 04:20:36;;;;;;;3.10;2.23;;;;;;;22.94;53.52;97595.78;4972386;28;20697;-31
2022/10/10 04:23:03;;;;;;;2.60;2.40;;;;;;;22.94;53.62;97598.34;4970053;28;20208;-31
2022/10/10 04:25:30;;;;;;;2.57;1.87;;;;;;;22.93;53.88;97596.59;4971988;28;20620;-31
2022/10/10 04:27:56;;;;;;;3.70;2.03;;;;;;;22.94;53.61;97597.47;4965825;28;20228;-31
2022/10/10 04:30:29;;;;;;;2.90;2.20;;;;;;;22.93;53.59;97604.31;4958818;28;20605;-31
2022/10/10 04:32:55;;;;;;;4.43;2.30;;;;;;;22.92;53.63;97597.41;4964680;28;20224;-31
2022/10/10 04:35:22;;;;;;;3.30;2.07;;;;;;;22.94;53.46;97594.88;4972292;28;20204;-31
2022/10/10 04:37:48;;;;;;;4.60;2.40;;;;;;;22.94;53.53;97602.56;4965510;28;20223;-31
2022/10/10 04:40:15;;;;;;;5.03;2.43;;;;;;;22.94;53.75;97606.03;4971352;28;20200;-31
2022/10/10 04:42:41;;;;;;;3.47;2.17;;;;;;;22.94;53.90;97600.03;4972960;28;20203;-31
2022/10/10 04:45:08;;;;;;;2.63;2.10;;;;;;;22.94;53.90;97598.34;4972666;28;20223;-31
2022/10/10 04:47:35;;;;;;;3.47;2.13;;;;;;;22.90;54.02;97585.41;4979282;28;20229;-31
2022/10/10 04:50:01;;;;;;;2.73;2.40;;;;;;;22.94;54.28;97592.31;4977687;28;20199;-31
2022/10/10 04:52:28;;;;;;;4.63;2.40;;;;;;;22.95;54.09;97596.66;4979283;28;20211;-31
2022/10/10 04:54:54;;;;;;;6.13;2.30;;;;;;;22.87;54.24;97585.31;4978923;28;20576;-31
2022/10/10 04:57:21;;;;;;;4.80;2.47;;;;;;;22.94;54.03;97594.88;4977946;28;20227;-31
2022/10/10 04:59:47;;;;;;;8.47;3.00;;;;;;;22.94;53.44;97593.22;4976030;28;20667;-31
2022/10/10 05:02:14;;;;;;;7.30;4.13;;;;;;;22.94;52.63;97603.47;4978959;28;20199;-31
2022/10/10 05:04:40;;;;;;;10.67;5.27;;;;;;;22.93;51.79;97601.75;4979171;28;20571;-31
2022/10/10 05:07:07;;;;;;;12.27;5.57;;;;;;;22.93;51.30;97603.41;4977795;28;20234;-31
2022/10/10 05:09:34;;;;;;;17.43;5.57;;;;;;;22.91;50.71;97600.81;4977625;28;20211;-31
2022/10/10 05:12:01;;;;;;;9.90;5.43;;;;;;;22.93;50.73;97593.16;4977742;28;20641;-31
2022/10/10 05:14:27;;;;;;;10.07;5.57;;;;;;;22.92;51.31;97597.41;4978296;28;20234;-31
2022/10/10 05:16:54;;;;;;;12.73;5.27;;;;;;;22.92;51.63;97605.09;4977809;28;20208;-31
2022/10/10 05:19:20;;;;;;;11.23;5.50;;;;;;;22.92;51.96;97601.69;4978895;28;20690;-31
2022/10/10 05:21:47;;;;;;;10.27;5.40;;;;;;;22.84;52.07;97591.25;4978235;28;20587;-31
2022/10/10 05:24:14;;;;;;;12.20;6.03;;;;;;;22.91;51.84;97597.38;4977722;28;20199;-31
2022/10/10 05:26:40;;;;;;;9.13;5.00;;;;;;;22.90;52.48;97593.97;4978801;28;20211;-31
2022/10/10 05:29:08;;;;;;;8.73;4.83;;;;;;;22.89;52.52;97594.78;4970699;28;20306;-31
2022/10/10 05:31:35;;;;;;;11.67;5.63;;;;;;;22.88;52.68;97598.19;4977983;28;20572;-31
2022/10/10 05:34:01;;;;;;;9.97;4.93;;;;;;;22.91;53.05;97610.19;4977940;28;20266;-31
2022/10/10 05:36:28;;;;;;;8.23;4.63;;;;;;;22.91;53.04;97603.38;4975949;28;20662;-31
2022/10/10 05:38:55;;;;;;;11.07;5.00;;;;;;;22.90;53.31;97599.09;4976796;28;20226;-31
2022/10/10 05:41:21;;;;;;;8.17;4.67;;;;;;;22.91;53.41;97602.50;4978590;28;20226;-31
2022/10/10 05:43:48;;;;;;;6.87;4.40;;;;;;;22.92;53.31;97610.22;4978091;28;20196;-31
2022/10/10 05:46:14;;;;;;;6.67;4.20;;;;;;;22.92;53.59;97610.22;4976857;28;20203;-31
2022/10/10 05:48:41;;;;;;;7.83;4.23;;;;;;;22.92;53.64;97599.97;4976547;28;20246;-31
2022/10/10 05:51:07;;;;;;;9.27;4.77;;;;;;;22.92;53.66;97601.69;4978093;28;20207;-31
2022/10/10 05:53:34;;;;;;;6.27;4.37;;;;;;;22.91;53.82;97610.19;4977319;28;20227;-30
2022/10/10 05:56:00;;;;;;;9.80;4.60;;;;;;;22.92;53.99;97614.50;4977886;28;20207;-31
2022/10/10 05:58:27;;;;;;;6.80;4.60;;;;;;;22.92;54.05;97617.91;4973674;28;20223;-31
2022/10/10 06:00:53;;;;;;;7.17;4.57;;;;;;;22.93;54.11;97619.69;4974396;28;20211;-31
2022/10/10 06:03:20;;;;;;;19.33;6.93;;;;;;;22.93;52.68;97619.69;4974662;28;20207;-31
2022/10/10 06:05:49;;;;;;;15.73;7.20;;;;;;;22.92;52.09;97615.34;4972897;28;20215;-31
2022/10/10 06:08:15;;;;;;;13.70;5.73;;;;;;;22.92;52.80;97619.63;4970908;28;20694;-31
2022/10/10 06:10:43;;;;;;;11.33;5.93;;;;;;;22.92;53.03;97638.41;4973856;28;20211;-31
2022/10/10 06:13:10;;;;;;;12.63;5.77;;;;;;;22.93;53.21;97626.50;4978728;28;20219;-31
2022/10/10 06:15:37;;;;;;;11.53;5.77;;;;;;;22.92;53.50;97623.03;4964886;28;20216;-31
2022/10/10 06:18:04;;;;;;;13.33;6.07;;;;;;;22.90;53.35;97616.16;4968246;28;20238;-31
2022/10/10 06:20:33;;;;;;;11.60;5.40;;;;;;;22.92;53.40;97620.47;4971330;28;20207;-31
2022/10/10 06:23:00;;;;;;;11.93;5.50;;;;;;;22.93;52.92;97622.25;4970835;28;20206;-31
2022/10/10 06:25:27;;;;;;;15.07;5.53;;;;;;;22.92;53.29;97619.63;4967215;28;20638;-31
2022/10/10 06:28:06;;;;;;;15.77;5.20;;;;;;;22.94;53.17;97629.09;4971196;28;20257;-31
2022/10/10 06:30:33;;;;;;;9.53;5.50;;;;;;;22.95;52.92;97627.41;4971221;28;20204;-31
2022/10/10 06:33:00;;;;;;;19.30;8.73;;;;;;;22.92;51.90;97619.63;4971665;28;20208;-31
2022/10/10 06:35:27;;;;;;;22.67;9.43;;;;;;;22.88;51.26;97617.81;4970720;28;20604;-31
2022/10/10 06:37:53;;;;;;;20.63;9.80;;;;;;;22.95;51.17;97635.09;4972060;28;20220;-31
2022/10/10 06:40:20;;;;;;;16.67;8.20;;;;;;;22.95;51.60;97638.50;4975306;28;20202;-31
2022/10/10 06:42:46;;;;;;;18.57;8.73;;;;;;;22.95;52.00;97640.22;4972247;28;20211;-31
2022/10/10 06:45:13;;;;;;;15.40;8.30;;;;;;;22.94;52.36;97641.03;4971307;28;20219;-31
2022/10/10 06:47:40;;;;;;;19.73;7.73;;;;;;;22.94;52.53;97648.72;4970624;28;20230;-31
2022/10/10 06:50:07;;;;;;;15.60;8.00;;;;;;;22.94;52.61;97646.16;4970144;28;20239;-31
2022/10/10 06:52:34;;;;;;;16.83;8.00;;;;;;;22.94;52.71;97643.59;4972739;28;20685;-31
2022/10/10 06:55:00;;;;;;;15.10;7.03;;;;;;;22.93;52.91;97647.00;4970328;28;20232;-32
2022/10/10 06:57:27;;;;;;;17.57;7.97;;;;;;;22.94;52.73;97653.84;4969625;28;20231;-31
2022/10/10 06:59:54;;;;;;;21.57;9.57;;;;;;;22.94;51.47;97647.03;4968944;28;20213;-31
2022/10/10 07:02:22;;;;;;;24.17;10.40;;;;;;;22.93;50.69;97650.44;4969916;28;20208;-31
2022/10/10 07:04:48;;;;;;;23.17;11.33;;;;;;;22.93;50.49;97649.56;4966354;28;20203;-31
2022/10/10 07:07:15;;;;;;;22.57;10.93;;;;;;;22.93;50.21;97660.69;4970342;28;20223;-31
2022/10/10 07:09:41;;;;;;;19.83;10.43;;;;;;;22.90;51.08;97663.16;4964165;28;20208;-32
2022/10/10 07:12:09;;;;;;;21.23;10.67;;;;;;;22.91;51.47;97661.44;4963941;28;20268;-31
2022/10/10 07:14:35;;;;;;;20.20;10.03;;;;;;;22.91;51.68;97664.91;4974944;28;20223;-31
2022/10/10 07:17:02;;;;;;;19.93;10.10;;;;;;;22.91;52.01;97670.03;4969654;28;20211;-31
2022/10/10 07:19:28;;;;;;;21.83;9.70;;;;;;;22.91;51.88;97667.44;4971647;28;20201;-31
2022/10/10 07:21:55;;;;;;;21.20;9.07;;;;;;;22.91;51.81;97667.44;4970762;28;20211;-31
2022/10/10 07:24:21;;;;;;;18.97;8.93;;;;;;;22.87;51.88;97657.09;4972231;28;20218;-31
2022/10/10 07:26:48;;;;;;;17.77;9.03;;;;;;;22.88;52.09;97666.50;4967199;28;20211;-31
2022/10/10 07:29:15;;;;;;;18.53;8.77;;;;;;;22.92;52.45;97664.06;4969068;28;20208;-31
2022/10/10 07:31:41;;;;;;;14.00;7.50;;;;;;;22.92;52.54;97671.75;4970066;28;20214;-31
2022/10/10 07:34:08;;;;;;;17.77;8.20;;;;;;;22.92;52.67;97668.34;4965924;28;20242;-31
2022/10/10 07:36:34;;;;;;;17.07;7.83;;;;;;;22.93;52.85;97673.50;4969190;28;20208;-31
2022/10/10 07:39:01;;;;;;;15.27;7.10;;;;;;;22.93;53.18;97673.50;4969225;28;20223;-31
2022/10/10 07:41:28;;;;;;;15.07;7.30;;;;;;;22.94;52.92;97682.03;4970070;28;20745;-31
2022/10/10 07:43:54;;;;;;;13.13;7.00;;;;;;;22.94;52.72;97672.66;4968134;28;20200;-31
2022/10/10 07:46:21;;;;;;;14.00;7.67;;;;;;;22.95;52.95;97676.94;4969887;28;20203;-31
2022/10/10 07:48:48;;;;;;;13.00;7.70;;;;;;;22.95;52.62;97679.50;4970164;28;20250;-31
2022/10/10 07:51:14;;;;;;;13.97;7.57;;;;;;;22.96;52.97;97680.38;4970120;28;20611;-31
2022/10/10 07:53:42;;;;;;;13.67;6.73;;;;;;;22.95;53.26;97673.53;4969038;28;20698;-31
2022/10/10 07:56:09;;;;;;;11.37;6.67;;;;;;;22.96;52.87;97675.25;4961195;28;20208;-31
2022/10/10 07:58:36;;;;;;;13.93;7.03;;;;;;;22.97;52.94;97677.00;4968710;28;20234;-31
2022/10/10 08:01:03;;;;;;;14.77;7.37;;;;;;;22.81;52.91;97645.00;4968078;28;20195;-31
2022/10/10 08:03:30;;;;;;;13.73;7.27;;;;;;;22.98;52.93;97676.19;4967705;28;20215;-31
2022/10/10 08:05:56;;;;;;;12.20;6.80;;;;;;;22.98;52.94;97679.59;4968964;28;20953;-31
2022/10/10 08:08:23;;;;;;;13.40;6.77;;;;;;;22.98;52.83;97671.91;4969363;28;20231;-31
2022/10/10 08:10:50;;;;;;;11.17;6.77;;;;;;;22.99;52.94;97681.34;4968183;28;20215;-31
2022/10/10 08:13:16;;;;;;;12.07;6.67;;;;;;;23.00;52.60;97682.19;4964407;28;20203;-31
2022/10/10 08:15:43;;;;;;;11.17;6.03;;;;;;;22.99;52.59;97683.91;4963960;28;20233;-31
2022/10/10 08:18:09;;;;;;;12.30;6.07;;;;;;;23.01;52.57;97681.38;4969240;28;20253;-31
2022/10/10 08:20:36;;;;;;;12.90;6.60;;;;;;;22.99;52.54;97667.66;4968611;28;20607;-31
2022/10/10 08:23:02;;;;;;;13.00;6.20;;;;;;;23.02;52.04;97685.69;4968067;28;20693;-31
2022/10/10 08:25:29;;;;;;;10.83;6.20;;;;;;;23.01;52.28;97681.38;4968775;28;20208;-31
2022/10/10 08:27:55;;;;;;;11.33;6.20;;;;;;;23.03;52.41;97685.72;4969242;28;20238;-31
2022/10/10 08:30:22;;;;;;;11.73;5.60;;;;;;;23.04;52.52;97679.75;4969276;28;20208;-31
2022/10/10 08:32:48;;;;;;;12.57;6.67;;;;;;;23.04;52.63;97689.16;4968658;28;20212;-31
2022/10/10 08:35:15;;;;;;;10.60;5.87;;;;;;;23.04;52.49;97696.84;4969182;28;20737;-31
2022/10/10 08:37:42;;;;;;;11.77;6.23;;;;;;;23.03;52.44;97688.28;4968986;28;20687;-31
2022/10/10 08:40:13;;;;;;;9.37;5.97;;;;;;;23.03;52.41;97688.28;4967197;28;20556;-31
2022/10/10 08:42:42;;;;;;;10.03;6.03;;;;;;;23.04;52.34;97690.00;4967462;28;20682;-31
2022/10/10 08:45:20;;;;;;;10.27;5.57;;;;;;;23.04;52.53;97687.44;4966924;28;20666;-31
2022/10/10 08:48:00;;;;;;;9.00;5.57;;;;;;;22.93;52.18;97676.06;4952031;28;20223;-30
2022/10/10 08:50:30;;;;;;;9.53;5.03;;;;;;;23.05;52.35;97689.19;4952039;28;20590;-31
2022/10/10 08:53:01;;;;;;;7.97;5.13;;;;;;;23.04;52.20;97690.00;4951677;28;20216;-31
2022/10/10 08:55:32;;;;;;;8.97;5.67;;;;;;;23.05;52.12;97689.19;4966484;28;20799;-31
2022/10/10 08:58:08;;;;;;;9.87;6.13;;;;;;;23.05;52.19;97694.31;4951547;28;20372;-31
2022/10/10 09:00:40;;;;;;;11.27;5.90;;;;;;;23.03;52.23;97693.41;4951879;28;20200;-31
2022/10/10 09:03:38;;;;;;;7.90;5.40;;;;;;;23.05;52.18;97690.88;4967606;28;20258;-32
2022/10/10 09:06:04;;;;;;;9.37;5.80;;;;;;;23.06;52.08;97684.91;4943752;28;20701;-31
2022/10/10 09:09:16;;;;;;;6.87;5.17;;;;;;;23.06;52.11;97687.47;4968425;28;20228;-31
2022/10/10 09:12:13;;;;;;;6.67;4.77;;;;;;;23.06;52.09;97690.91;4953012;28;20215;-31
2022/10/10 09:15:10;;;;;;;9.30;5.40;;;;;;;23.07;51.87;97684.09;4965725;28;20227;-31
2022/10/10 09:17:44;;;;;;;8.47;5.27;;;;;;;22.99;51.91;97670.22;4967533;28;20234;-31
2022/10/10 09:20:47;;;;;;;9.10;5.07;;;;;;;23.07;51.50;97677.25;4968260;28;20203;-31
2022/10/10 09:23:41;;;;;;;7.40;5.03;;;;;;;23.07;51.57;97669.56;4963253;28;20666;-31
2022/10/10 09:26:12;;;;;;;9.00;4.93;;;;;;;23.09;51.93;97669.63;4965676;28;20593;-31
2022/10/10 09:28:56;;;;;;;7.20;5.00;;;;;;;23.09;51.89;97672.19;4968213;28;20231;-31
2022/10/10 09:31:27;;;;;;;6.37;5.10;;;;;;;23.09;52.01;97683.31;4964860;28;20204;-31
2022/10/10 09:34:00;;;;;;;7.73;4.73;;;;;;;23.08;52.19;97681.59;4958641;28;20209;-31
2022/10/10 09:36:32;;;;;;;6.83;4.80;;;;;;;23.07;52.55;97678.97;4958080;28;20269;-31
2022/10/10 09:39:24;;;;;;;9.83;4.47;;;;;;;23.08;51.91;97680.72;4969857;28;20230;-31
2022/10/10 09:41:57;;;;;;;6.37;4.80;;;;;;;23.07;52.15;97682.38;4960145;28;20195;-31
2022/10/10 09:44:23;;;;;;;6.83;5.03;;;;;;;23.08;52.12;97684.16;4972515;28;20202;-31
2022/10/10 09:46:50;;;;;;;7.20;5.17;;;;;;;23.08;51.98;97688.41;4949650;28;20693;-31
2022/10/10 09:49:18;;;;;;;7.97;4.53;;;;;;;23.09;51.75;97690.13;4972905;28;20196;-31
2022/10/10 09:51:44;;;;;;;7.30;4.70;;;;;;;23.08;51.77;97684.16;4971813;28;21782;-31
2022/10/10 09:54:13;;;;;;;6.97;4.47;;;;;;;23.07;51.95;97686.66;4971380;28;20583;-31
2022/10/10 09:56:43;;;;;;;6.17;4.70;;;;;;;23.09;51.82;97680.75;4971191;28;20210;-31
2022/10/10 09:59:41;;;;;;;8.27;4.80;;;;;;;23.09;51.81;97685.88;4970436;28;20231;-31
2022/10/10 10:02:16;;;;;;;7.47;4.77;;;;;;;23.10;51.76;97684.19;4971434;28;20666;-31
2022/10/10 10:04:43;;;;;;;7.10;4.70;;;;;;;23.10;51.81;97691.88;4972726;28;20196;-31
2022/10/10 10:07:19;;;;;;;9.20;4.73;;;;;;;23.10;51.80;97682.50;4970936;28;20223;-31
2022/10/10 10:09:49;;;;;;;7.63;4.80;;;;;;;23.11;51.77;97685.91;4972306;28;20203;-31
2022/10/10 10:12:21;;;;;;;5.87;4.10;;;;;;;23.10;51.65;97690.19;4970903;28;20210;-31
2022/10/10 10:14:48;;;;;;;6.73;4.40;;;;;;;23.10;51.43;97689.31;4972569;28;20250;-31
2022/10/10 10:17:17;;;;;;;5.97;4.27;;;;;;;23.05;51.18;97678.94;4970595;28;20220;-31
2022/10/10 10:19:45;;;;;;;7.20;4.63;;;;;;;23.11;51.15;97686.78;4979614;28;20215;-31
2022/10/10 10:22:24;;;;;;;5.57;4.00;;;;;;;23.13;51.14;97691.97;4968991;28;20200;-31
2022/10/10 10:24:52;;;;;;;5.90;4.53;;;;;;;23.13;51.06;97691.97;4972102;28;20807;-31
2022/10/10 10:27:20;;;;;;;6.77;4.70;;;;;;;23.13;51.24;97690.28;4970341;28;20246;-31
2022/10/10 10:29:51;;;;;;;5.63;3.97;;;;;;;23.12;51.32;97685.09;4971108;28;20210;-31
2022/10/10 10:32:30;;;;;;;6.50;4.33;;;;;;;23.14;51.25;97691.13;4972703;28;20216;-31
2022/10/10 10:35:18;;;;;;;5.37;3.60;;;;;;;23.14;51.14;97686.88;4966970;28;20831;-31
2022/10/10 10:38:11;;;;;;;5.67;4.03;;;;;;;23.12;51.31;97677.41;4968885;28;20359;-31
2022/10/10 10:40:43;;;;;;;7.30;4.30;;;;;;;23.02;51.20;97671.19;4966389;28;20625;-31
2022/10/10 10:43:43;;;;;;;5.97;4.27;;;;;;;23.14;50.97;97707.38;4975236;28;20211;-31
2022/10/10 10:46:28;;;;;;;5.43;3.60;;;;;;;23.14;51.29;97694.56;4995356;28;20218;-31
2022/10/10 10:49:01;;;;;;;5.47;4.00;;;;;;;23.13;51.31;97690.28;4968443;28;20838;-31
2022/10/10 10:52:01;;;;;;;5.30;3.40;;;;;;;23.14;51.66;97691.13;4967186;28;20207;-31
2022/10/10 10:55:08;;;;;;;5.07;3.77;;;;;;;23.12;51.47;97688.50;4965554;28;20228;-31
2022/10/10 10:57:34;;;;;;;5.17;3.57;;;;;;;23.12;51.63;97677.41;4959121;28;20219;-31
2022/10/10 11:00:22;;;;;;;5.97;4.10;;;;;;;23.10;51.77;97694.44;4963234;28;20216;-31
2022/10/10 11:03:08;;;;;;;6.03;3.97;;;;;;;23.11;51.75;97686.78;4943832;28;20204;-31
2022/10/10 11:06:04;;;;;;;4.57;3.60;;;;;;;23.12;51.82;97677.41;4956868;28;20196;-31
2022/10/10 11:08:46;;;;;;;5.23;3.47;;;;;;;23.08;51.81;97665.31;4960634;28;20232;-31
2022/10/10 11:11:13;;;;;;;4.23;3.50;;;;;;;23.10;52.10;97668.81;4954160;28;20533;-31
2022/10/10 11:13:48;;;;;;;4.30;3.20;;;;;;;23.10;52.02;97669.69;4957383;28;20679;-31
2022/10/10 11:16:24;;;;;;;5.03;3.47;;;;;;;23.10;52.07;97659.44;4959566;28;20452;-31
2022/10/10 11:19:13;;;;;;;5.70;4.13;;;;;;;23.09;52.23;97655.09;4970099;28;20614;-31
2022/10/10 11:21:45;;;;;;;5.70;3.83;;;;;;;23.10;52.21;97651.75;4959518;28;20207;-31
2022/10/10 11:24:33;;;;;;;4.10;3.63;;;;;;;23.06;52.30;97651.59;4957072;28;20877;-31
2022/10/10 11:27:01;;;;;;;6.17;4.03;;;;;;;23.09;52.24;97656.78;4959223;28;20200;-31
2022/10/10 11:29:31;;;;;;;4.97;3.70;;;;;;;23.09;52.37;97652.53;4954765;28;20226;-31
2022/10/10 11:32:10;;;;;;;4.03;3.40;;;;;;;23.09;52.35;97657.66;4965123;28;20200;-31
2022/10/10 11:35:05;;;;;;;8.67;4.00;;;;;;;23.09;52.48;97667.03;4971156;28;20318;-31
2022/10/10 11:37:33;;;;;;;3.77;3.00;;;;;;;22.89;52.53;97637.50;4969430;28;20595;-31
2022/10/10 11:40:02;;;;;;;8.23;3.77;;;;;;;22.94;52.74;97629.09;4950237;28;20196;-31
2022/10/10 11:42:32;;;;;;;4.70;3.50;;;;;;;23.08;52.57;97660.19;4947809;28;20586;-31
2022/10/10 11:45:13;;;;;;;4.33;3.37;;;;;;;23.08;52.70;97658.50;4968194;28;20626;-31
2022/10/10 11:48:03;;;;;;;4.80;3.90;;;;;;;22.98;52.75;97638.59;4954291;28;20420;-31